Time;durP1;ratioP1;P1;durP2;ratioP2;P2;SDS_P1;SDS_P2;PMS_P1;PMS_P2;Temp;Humidity;BMP_temperature;BMP_pressure;BME280_temperature;BME280_humidity;BME280_pressure;Samples;Min_cycle;Max_cycle;Signal;HPM_P1;HPM_P2
2022/06/28 00:02:22;;;;;;;18.90;11.00;;;;;;;;;;1683827;84;21508;-72
2022/06/28 00:04:49;;;;;;;19.10;11.03;;;;;;;;;;1768582;81;21022;-73
2022/06/28 00:07:15;;;;;;;19.95;10.58;;;;;;;;;;1754678;81;21110;-73
2022/06/28 00:09:41;;;;;;;18.10;10.82;;;;;;;;;;1756833;81;21021;-73
2022/06/28 00:12:08;;;;;;;18.57;12.18;;;;;;;;;;1778998;81;21060;-73
2022/06/28 00:17:20;;;;;;;17.65;10.18;;;;;;;;;;1743891;81;21018;-72
2022/06/28 00:19:46;;;;;;;18.02;9.95;;;;;;;;;;1762660;81;21824;-72
2022/06/28 00:22:12;;;;;;;15.32;9.73;;;;;;;;;;1760851;81;21525;-72
2022/06/28 00:24:38;;;;;;;15.35;10.15;;;;;;;;;;1747965;81;21054;-73
2022/06/28 00:27:04;;;;;;;17.27;9.88;;;;;;;;;;1753387;81;21373;-72
2022/06/28 00:29:30;;;;;;;16.77;10.95;;;;;;;;;;1745781;81;21010;-73
2022/06/28 00:31:57;;;;;;;17.17;9.85;;;;;;;;;;1708729;83;21050;-73
2022/06/28 00:34:23;;;;;;;17.07;10.53;;;;;;;;;;1712216;84;21082;-73
2022/06/28 00:36:50;;;;;;;13.38;9.45;;;;;;;;;;1686639;83;21040;-72
2022/06/28 00:39:17;;;;;;;15.15;10.65;;;;;;;;;;1687942;85;21055;-72
2022/06/28 00:41:43;;;;;;;15.25;9.80;;;;;;;;;;1688550;84;21112;-72
2022/06/28 00:44:10;;;;;;;16.05;10.20;;;;;;;;;;1688335;85;21057;-73
2022/06/28 00:46:36;;;;;;;16.70;9.75;;;;;;;;;;1687076;83;22285;-72
2022/06/28 00:49:03;;;;;;;19.02;10.38;;;;;;;;;;1682728;85;21063;-73
2022/06/28 00:51:29;;;;;;;15.05;10.30;;;;;;;;;;1697924;84;21008;-72
2022/06/28 00:53:55;;;;;;;16.93;12.23;;;;;;;;;;1767082;81;21044;-72
2022/06/28 00:56:21;;;;;;;16.52;10.48;;;;;;;;;;1744211;81;21576;-72
2022/06/28 00:58:48;;;;;;;14.80;9.80;;;;;;;;;;1761180;79;21097;-72
2022/06/28 01:04:03;;;;;;;16.23;10.10;;;;;;;;;;1731089;79;21103;-73
2022/06/28 01:06:30;;;;;;;18.92;11.97;;;;;;;;;;1704433;83;21036;-73
2022/06/28 01:08:56;;;;;;;17.30;10.38;;;;;;;;;;1713873;84;21580;-73
2022/06/28 01:11:23;;;;;;;15.23;10.10;;;;;;;;;;1713439;84;21049;-73
2022/06/28 01:13:51;;;;;;;16.40;9.70;;;;;;;;;;1710357;82;20997;-73
2022/06/28 01:16:18;;;;;;;16.23;10.30;;;;;;;;;;1671552;85;21585;-73
2022/06/28 01:18:45;;;;;;;16.73;10.03;;;;;;;;;;1670652;85;21639;-73
2022/06/28 01:21:13;;;;;;;17.60;9.90;;;;;;;;;;1711413;84;21046;-73
2022/06/28 01:23:41;;;;;;;15.75;10.23;;;;;;;;;;1711857;82;21036;-73
2022/06/28 01:26:12;;;;;;;15.63;11.97;;;;;;;;;;1712282;83;21041;-74
2022/06/28 01:28:40;;;;;;;19.48;12.65;;;;;;;;;;1710349;84;21539;-73
2022/06/28 01:31:18;;;;;;;16.32;10.63;;;;;;;;;;1712034;84;21440;-72
2022/06/28 01:33:45;;;;;;;18.07;10.15;;;;;;;;;;1701199;82;20969;-72
2022/06/28 01:36:13;;;;;;;16.32;11.03;;;;;;;;;;1726821;82;20999;-72
2022/06/28 01:38:39;;;;;;;15.70;10.25;;;;;;;;;;1682887;84;21076;-73
2022/06/28 01:41:06;;;;;;;17.52;10.88;;;;;;;;;;1709659;84;21063;-73
2022/06/28 01:43:33;;;;;;;17.80;12.18;;;;;;;;;;1712720;82;21483;-74
2022/06/28 01:45:59;;;;;;;16.67;10.70;;;;;;;;;;1724148;82;21533;-73
2022/06/28 01:48:26;;;;;;;17.73;10.08;;;;;;;;;;1710726;83;21052;-73
2022/06/28 01:50:56;;;;;;;17.50;10.78;;;;;;;;;;1713132;84;21600;-73
2022/06/28 01:53:23;;;;;;;16.23;12.25;;;;;;;;;;1711691;82;21087;-72
2022/06/28 01:55:54;;;;;;;17.17;10.60;;;;;;;;;;1702553;83;21047;-73
2022/06/28 01:58:31;;;;;;;16.97;10.25;;;;;;;;;;1684737;82;21489;-73
2022/06/28 02:00:58;;;;;;;18.10;11.25;;;;;;;;;;1732920;82;21596;-73
2022/06/28 02:03:24;;;;;;;20.23;13.85;;;;;;;;;;1725587;81;21104;-72
2022/06/28 02:05:53;;;;;;;18.23;11.15;;;;;;;;;;1723905;82;21071;-73
2022/06/28 02:08:19;;;;;;;18.98;11.63;;;;;;;;;;1716728;82;21023;-73
2022/06/28 02:10:57;;;;;;;16.95;11.10;;;;;;;;;;1718113;82;21104;-72
2022/06/28 02:13:24;;;;;;;17.25;11.70;;;;;;;;;;1687406;82;21040;-73
2022/06/28 02:15:50;;;;;;;18.60;11.05;;;;;;;;;;1717660;82;20993;-73
2022/06/28 02:18:18;;;;;;;17.15;11.35;;;;;;;;;;1709585;83;21027;-73
2022/06/28 02:20:45;;;;;;;15.68;10.28;;;;;;;;;;1706073;83;21042;-73
2022/06/28 02:23:11;;;;;;;18.35;13.80;;;;;;;;;;1713945;83;21010;-73
2022/06/28 02:25:38;;;;;;;18.37;14.15;;;;;;;;;;1708653;82;21046;-73
2022/06/28 02:28:04;;;;;;;17.30;10.93;;;;;;;;;;1712387;82;21029;-73
2022/06/28 02:30:30;;;;;;;15.90;10.53;;;;;;;;;;1702820;83;21077;-73
2022/06/28 02:32:57;;;;;;;18.60;11.18;;;;;;;;;;1702889;84;21547;-73
2022/06/28 02:42:00;;;;;;;17.90;11.00;;;;;;;;;;1801965;79;23393;-74
2022/06/28 02:44:26;;;;;;;16.37;10.90;;;;;;;;;;1759846;80;21075;-74
2022/06/28 02:46:53;;;;;;;16.85;11.25;;;;;;;;;;1758310;80;21001;-74
2022/06/28 02:49:19;;;;;;;17.73;12.93;;;;;;;;;;1759989;80;21014;-73
2022/06/28 02:51:45;;;;;;;15.78;10.78;;;;;;;;;;1758286;81;20976;-73
2022/06/28 02:54:11;;;;;;;17.95;10.15;;;;;;;;;;1756599;80;21083;-73
2022/06/28 02:56:38;;;;;;;14.68;10.93;;;;;;;;;;1756882;80;21055;-73
2022/06/28 02:59:04;;;;;;;16.45;12.68;;;;;;;;;;1764903;80;21538;-73
2022/06/28 03:01:30;;;;;;;15.65;12.60;;;;;;;;;;1756504;80;21570;-73
2022/06/28 03:03:59;;;;;;;18.42;12.53;;;;;;;;;;1738226;82;21132;-73
2022/06/28 03:06:25;;;;;;;13.35;10.82;;;;;;;;;;1723508;82;21069;-72
2022/06/28 03:08:52;;;;;;;14.35;10.60;;;;;;;;;;1725365;82;21043;-73
2022/06/28 03:11:19;;;;;;;12.80;10.32;;;;;;;;;;1723393;83;21520;-73
2022/06/28 03:13:45;;;;;;;12.50;9.28;;;;;;;;;;1729209;82;21020;-73
2022/06/28 03:16:12;;;;;;;12.18;10.20;;;;;;;;;;1742426;82;20993;-73
2022/06/28 03:18:38;;;;;;;12.80;10.68;;;;;;;;;;1722964;83;21177;-73
2022/06/28 03:21:04;;;;;;;10.50;9.05;;;;;;;;;;1723205;82;21610;-73
2022/06/28 03:23:30;;;;;;;11.95;10.35;;;;;;;;;;1735746;82;20996;-74
2022/06/28 03:25:56;;;;;;;12.37;11.08;;;;;;;;;;1731087;82;21061;-74
2022/06/28 03:28:22;;;;;;;11.03;8.98;;;;;;;;;;1727155;82;21000;-74
2022/06/28 03:30:49;;;;;;;9.78;8.78;;;;;;;;;;1724140;82;21111;-74
2022/06/28 03:33:15;;;;;;;12.88;10.90;;;;;;;;;;1725929;83;21495;-74
2022/06/28 03:35:41;;;;;;;12.90;11.30;;;;;;;;;;1731352;82;21029;-73
2022/06/28 03:38:07;;;;;;;9.60;8.60;;;;;;;;;;1750892;82;21064;-73
2022/06/28 03:40:51;;;;;;;10.38;8.20;;;;;;;;;;1637124;86;21631;-73
2022/06/28 03:43:17;;;;;;;9.95;8.85;;;;;;;;;;1691069;82;21040;-73
2022/06/28 03:45:44;;;;;;;11.05;9.90;;;;;;;;;;1730213;82;21594;-74
2022/06/28 03:48:28;;;;;;;9.75;8.50;;;;;;;;;;1732673;82;21420;-75
2022/06/28 03:51:14;;;;;;;11.63;10.50;;;;;;;;;;1714845;82;21022;-75
2022/06/28 03:53:42;;;;;;;9.43;8.43;;;;;;;;;;1716266;82;21087;-74
2022/06/28 03:56:13;;;;;;;11.80;9.73;;;;;;;;;;1722686;82;21781;-74
2022/06/28 03:58:39;;;;;;;14.07;9.98;;;;;;;;;;1724782;83;21045;-77
2022/06/28 04:01:05;;;;;;;10.72;8.83;;;;;;;;;;1723113;82;21045;-74
2022/06/28 04:03:31;;;;;;;9.83;8.55;;;;;;;;;;1724108;82;21586;-74
2022/06/28 04:05:57;;;;;;;9.33;8.33;;;;;;;;;;1726897;82;22089;-74
2022/06/28 04:08:23;;;;;;;10.05;8.08;;;;;;;;;;1725228;82;21011;-74
2022/06/28 04:11:13;;;;;;;8.75;7.58;;;;;;;;;;1723552;83;21564;-74
2022/06/28 04:13:21;;;;;;;8.78;7.53;;;;;;;;;;1720777;82;21489;-74
2022/06/28 04:15:47;;;;;;;10.43;7.72;;;;;;;;;;1724419;82;21013;-75
2022/06/28 04:18:15;;;;;;;8.65;7.75;;;;;;;;;;1721316;83;21084;-75
2022/06/28 04:20:44;;;;;;;8.03;7.22;;;;;;;;;;1722444;82;20981;-75
2022/06/28 04:23:11;;;;;;;9.25;6.70;;;;;;;;;;1727696;82;21013;-75
2022/06/28 04:25:38;;;;;;;7.53;6.62;;;;;;;;;;1721790;83;21064;-74
2022/06/28 04:28:13;;;;;;;11.53;7.10;;;;;;;;;;1724708;82;21040;-75
2022/06/28 04:30:41;;;;;;;8.35;6.62;;;;;;;;;;1729155;82;21093;-75
2022/06/28 04:33:07;;;;;;;6.90;6.20;;;;;;;;;;1716207;83;21297;-74
2022/06/28 04:35:34;;;;;;;7.40;6.40;;;;;;;;;;1723704;82;21039;-74
2022/06/28 04:38:01;;;;;;;8.98;6.30;;;;;;;;;;1726356;82;21607;-75
2022/06/28 04:40:32;;;;;;;7.20;6.60;;;;;;;;;;1709243;83;21108;-74
2022/06/28 04:43:02;;;;;;;6.70;6.10;;;;;;;;;;1704768;83;21088;-75
2022/06/28 04:45:29;;;;;;;6.62;5.97;;;;;;;;;;1709408;83;21496;-74
2022/06/28 04:47:57;;;;;;;6.62;5.87;;;;;;;;;;1707789;83;21013;-75
2022/06/28 04:50:24;;;;;;;8.90;6.25;;;;;;;;;;1700385;83;21007;-76
2022/06/28 04:52:50;;;;;;;7.17;6.17;;;;;;;;;;1706663;83;21037;-73
2022/06/28 04:55:17;;;;;;;9.00;6.10;;;;;;;;;;1710966;83;21491;-76
2022/06/28 04:57:51;;;;;;;6.37;5.67;;;;;;;;;;1710132;83;21113;-76
2022/06/28 05:00:17;;;;;;;7.40;6.58;;;;;;;;;;1701052;83;20976;-77
2022/06/28 05:02:45;;;;;;;7.67;5.35;;;;;;;;;;1692166;83;21024;-76
2022/06/28 05:05:28;;;;;;;7.40;6.00;;;;;;;;;;1675079;85;21041;-75
2022/06/28 05:07:54;;;;;;;7.05;5.60;;;;;;;;;;1692181;84;21053;-76
2022/06/28 05:10:24;;;;;;;8.30;5.95;;;;;;;;;;1717305;83;21038;-76
2022/06/28 05:12:51;;;;;;;6.22;5.30;;;;;;;;;;1698526;83;20988;-76
2022/06/28 05:15:18;;;;;;;7.92;6.08;;;;;;;;;;1710134;83;21005;-75
2022/06/28 05:17:59;;;;;;;7.25;5.75;;;;;;;;;;1711390;83;21487;-75
2022/06/28 05:20:25;;;;;;;14.43;5.97;;;;;;;;;;1717368;83;21093;-75
2022/06/28 05:22:51;;;;;;;6.50;5.62;;;;;;;;;;1690819;83;21535;-76
2022/06/28 05:25:25;;;;;;;6.83;5.58;;;;;;;;;;1720786;83;21053;-76
2022/06/28 05:27:52;;;;;;;7.65;5.80;;;;;;;;;;1719830;83;21270;-77
2022/06/28 05:30:18;;;;;;;11.68;6.25;;;;;;;;;;1716248;83;21049;-76
2022/06/28 05:32:44;;;;;;;14.58;6.30;;;;;;;;;;1708454;83;21540;-77
2022/06/28 05:35:10;;;;;;;8.40;6.08;;;;;;;;;;1726534;83;21045;-77
2022/06/28 05:37:36;;;;;;;6.08;5.47;;;;;;;;;;1714339;83;21047;-78
2022/06/28 05:40:03;;;;;;;6.05;5.45;;;;;;;;;;1700867;83;22154;-77
2022/06/28 05:42:30;;;;;;;7.58;5.75;;;;;;;;;;1683209;85;21630;-76
2022/06/28 05:44:56;;;;;;;6.53;5.47;;;;;;;;;;1696449;82;21064;-76
2022/06/28 05:47:23;;;;;;;6.60;5.53;;;;;;;;;;1691334;82;21059;-76
2022/06/28 05:49:49;;;;;;;5.45;4.95;;;;;;;;;;1696340;82;21576;-76
2022/06/28 05:52:15;;;;;;;7.47;5.65;;;;;;;;;;1716059;82;20996;-75
2022/06/28 05:54:41;;;;;;;7.10;5.25;;;;;;;;;;1722588;83;21017;-77
2022/06/28 05:57:07;;;;;;;6.85;5.33;;;;;;;;;;1719005;82;21065;-71
2022/06/28 05:59:33;;;;;;;7.72;5.80;;;;;;;;;;1707483;84;21485;-77
2022/06/28 06:01:59;;;;;;;6.53;5.15;;;;;;;;;;1707017;83;21028;-76
2022/06/28 06:04:25;;;;;;;5.78;5.17;;;;;;;;;;1708883;83;21056;-76
2022/06/28 06:06:51;;;;;;;6.00;5.40;;;;;;;;;;1714317;83;21077;-76
2022/06/28 06:09:18;;;;;;;11.93;6.05;;;;;;;;;;1707325;83;20973;-76
2022/06/28 06:11:47;;;;;;;8.40;5.28;;;;;;;;;;1704817;84;21116;-77
2022/06/28 06:14:15;;;;;;;6.42;5.17;;;;;;;;;;1642899;86;21028;-76
2022/06/28 06:16:41;;;;;;;11.20;5.83;;;;;;;;;;1712082;84;21017;-76
2022/06/28 06:19:08;;;;;;;6.20;5.60;;;;;;;;;;1695806;84;21103;-77
2022/06/28 06:21:34;;;;;;;9.10;5.80;;;;;;;;;;1719045;83;21061;-77
2022/06/28 06:24:00;;;;;;;9.78;5.60;;;;;;;;;;1711010;83;21575;-77
2022/06/28 06:26:45;;;;;;;6.95;5.62;;;;;;;;;;1710873;83;21068;-76
2022/06/28 06:29:12;;;;;;;8.43;5.47;;;;;;;;;;1708232;83;21040;-76
2022/06/28 06:31:38;;;;;;;26.02;6.90;;;;;;;;;;1705818;83;21045;-78
2022/06/28 06:34:09;;;;;;;5.92;5.28;;;;;;;;;;1694044;83;21076;-88
2022/06/28 06:36:37;;;;;;;5.33;4.50;;;;;;;;;;1690254;84;21016;-79
2022/06/28 06:39:03;;;;;;;6.90;5.22;;;;;;;;;;1698452;83;21056;-77
2022/06/28 06:41:30;;;;;;;5.70;5.17;;;;;;;;;;1709338;83;21024;-77
2022/06/28 06:43:57;;;;;;;5.58;5.08;;;;;;;;;;1726505;83;21024;-77
2022/06/28 06:46:23;;;;;;;26.23;7.67;;;;;;;;;;1719755;83;21075;-77
2022/06/28 06:48:49;;;;;;;5.37;4.72;;;;;;;;;;1701053;82;21481;-77
2022/06/28 06:51:15;;;;;;;8.40;5.33;;;;;;;;;;1716943;83;20973;-77
2022/06/28 06:53:41;;;;;;;7.37;5.58;;;;;;;;;;1719908;83;21000;-77
2022/06/28 06:56:07;;;;;;;6.58;4.70;;;;;;;;;;1719875;83;21055;-76
2022/06/28 06:58:33;;;;;;;5.08;4.58;;;;;;;;;;1718882;82;21655;-75
2022/06/28 07:01:00;;;;;;;9.68;4.72;;;;;;;;;;1720269;82;21600;-77
2022/06/28 07:03:28;;;;;;;10.13;4.67;;;;;;;;;;1684936;83;21076;-77
2022/06/28 07:05:56;;;;;;;68.07;10.03;;;;;;;;;;1722433;82;21071;-76
2022/06/28 07:08:22;;;;;;;5.35;4.60;;;;;;;;;;1737616;82;21052;-76
2022/06/28 07:10:51;;;;;;;6.00;4.78;;;;;;;;;;1717799;82;21001;-77
2022/06/28 07:13:18;;;;;;;7.83;4.72;;;;;;;;;;1717841;82;21083;-76
2022/06/28 07:15:45;;;;;;;6.58;4.67;;;;;;;;;;1712549;82;20981;-75
2022/06/28 07:18:12;;;;;;;5.30;4.53;;;;;;;;;;1718573;83;21555;-77
2022/06/28 07:20:39;;;;;;;9.95;4.60;;;;;;;;;;1719817;83;21510;-77
2022/06/28 07:23:05;;;;;;;5.17;4.67;;;;;;;;;;1668455;85;21573;-77
2022/06/28 07:25:31;;;;;;;5.50;5.00;;;;;;;;;;1658434;86;21057;-77
2022/06/28 07:27:57;;;;;;;6.25;5.42;;;;;;;;;;1633978;86;21037;-77
2022/06/28 07:30:24;;;;;;;6.40;5.80;;;;;;;;;;1660714;86;21214;-77
2022/06/28 07:32:51;;;;;;;5.28;4.78;;;;;;;;;;1683249;85;21568;-77
2022/06/28 07:35:18;;;;;;;5.55;5.05;;;;;;;;;;1723301;82;20993;-77
2022/06/28 07:37:46;;;;;;;6.60;5.37;;;;;;;;;;1725096;82;21523;-77
2022/06/28 07:40:12;;;;;;;8.73;6.10;;;;;;;;;;1714265;82;21559;-78
2022/06/28 07:42:43;;;;;;;6.92;5.75;;;;;;;;;;1715524;82;21006;-74
2022/06/28 07:45:23;;;;;;;6.45;5.67;;;;;;;;;;1727807;82;21016;-76
2022/06/28 07:47:51;;;;;;;6.40;5.65;;;;;;;;;;1708721;82;20986;-76
2022/06/28 07:53:04;;;;;;;7.83;5.80;;;;;;;;;;1714985;83;21087;-77
2022/06/28 07:55:34;;;;;;;7.47;6.40;;;;;;;;;;1717719;83;21136;-77
2022/06/28 07:58:05;;;;;;;6.58;5.72;;;;;;;;;;1717347;83;21346;-76
2022/06/28 08:00:32;;;;;;;6.37;5.75;;;;;;;;;;1717140;82;21045;-76
2022/06/28 08:03:05;;;;;;;7.47;5.65;;;;;;;;;;1717080;83;21060;-75
2022/06/28 08:05:32;;;;;;;5.83;5.33;;;;;;;;;;1718246;83;21091;-75
2022/06/28 08:08:00;;;;;;;6.37;5.55;;;;;;;;;;1716093;83;21044;-76
2022/06/28 08:10:26;;;;;;;6.58;5.83;;;;;;;;;;1715978;83;21021;-77
2022/06/28 08:12:54;;;;;;;6.87;5.58;;;;;;;;;;1715617;83;21636;-77
2022/06/28 08:15:21;;;;;;;8.13;5.70;;;;;;;;;;1714578;82;21040;-76
2022/06/28 08:17:47;;;;;;;6.45;5.28;;;;;;;;;;1691818;83;21010;-77
2022/06/28 08:20:13;;;;;;;6.00;5.22;;;;;;;;;;1720560;82;21077;-75
2022/06/28 08:22:39;;;;;;;10.68;5.83;;;;;;;;;;1723343;83;20984;-77
2022/06/28 08:25:06;;;;;;;13.55;5.70;;;;;;;;;;1723818;83;21547;-74
2022/06/28 08:27:32;;;;;;;5.83;5.10;;;;;;;;;;1730095;83;21005;-74
2022/06/28 08:29:58;;;;;;;5.58;5.08;;;;;;;;;;1721352;83;21052;-75
2022/06/28 08:32:26;;;;;;;6.97;6.33;;;;;;;;;;1714412;84;21579;-74
2022/06/28 08:34:54;;;;;;;6.28;5.28;;;;;;;;;;1714743;84;21020;-75
2022/06/28 08:37:20;;;;;;;5.92;5.40;;;;;;;;;;1715928;83;21094;-75
2022/06/28 08:39:47;;;;;;;6.80;5.45;;;;;;;;;;1719018;83;21068;-76
2022/06/28 08:42:15;;;;;;;7.67;5.75;;;;;;;;;;1715040;83;21068;-77
2022/06/28 08:44:41;;;;;;;5.85;5.35;;;;;;;;;;1714645;83;21146;-75
2022/06/28 08:47:07;;;;;;;6.22;5.62;;;;;;;;;;1715408;84;21028;-76
2022/06/28 08:49:45;;;;;;;7.00;6.25;;;;;;;;;;1711487;84;21127;-76
2022/06/28 08:52:11;;;;;;;6.55;5.28;;;;;;;;;;1708271;83;21013;-75
2022/06/28 08:54:37;;;;;;;7.67;5.95;;;;;;;;;;1715374;84;21067;-76
2022/06/28 08:57:05;;;;;;;9.90;5.50;;;;;;;;;;1715176;84;21001;-76
2022/06/28 08:59:31;;;;;;;6.10;5.50;;;;;;;;;;1713900;82;21010;-75
2022/06/28 09:01:57;;;;;;;6.35;5.75;;;;;;;;;;1710349;82;21047;-75
2022/06/28 09:04:23;;;;;;;7.65;5.80;;;;;;;;;;1716690;82;21052;-76
2022/06/28 09:06:49;;;;;;;5.97;5.42;;;;;;;;;;1690531;84;21029;-78
2022/06/28 09:09:15;;;;;;;5.92;5.33;;;;;;;;;;1718326;83;22016;-75
2022/06/28 09:11:43;;;;;;;5.78;5.28;;;;;;;;;;1717908;82;21051;-74
2022/06/28 09:14:23;;;;;;;6.92;5.47;;;;;;;;;;1724295;82;21540;-78
2022/06/28 09:16:49;;;;;;;6.17;5.67;;;;;;;;;;1723903;83;21088;-77
2022/06/28 09:19:16;;;;;;;6.15;5.65;;;;;;;;;;1717921;82;21084;-80
2022/06/28 09:21:43;;;;;;;5.87;5.12;;;;;;;;;;1719509;83;21092;-80
2022/06/28 09:24:09;;;;;;;7.85;5.60;;;;;;;;;;1715564;84;20989;-78
2022/06/28 09:26:35;;;;;;;5.85;5.20;;;;;;;;;;1720254;83;21052;-78
2022/06/28 09:29:01;;;;;;;6.05;5.45;;;;;;;;;;1692823;83;21020;-78
2022/06/28 09:31:28;;;;;;;6.17;5.67;;;;;;;;;;1721008;82;21589;-80
2022/06/28 09:34:02;;;;;;;5.72;5.22;;;;;;;;;;1723176;83;21024;-79
2022/06/28 09:36:29;;;;;;;10.88;9.15;;;;;;;;;;1718833;83;21038;-80
2022/06/28 09:38:56;;;;;;;7.15;6.45;;;;;;;;;;1703271;83;21004;-79
2022/06/28 09:41:26;;;;;;;6.12;5.62;;;;;;;;;;1722865;83;21016;-79
2022/06/28 09:43:54;;;;;;;7.95;6.72;;;;;;;;;;1689199;85;21026;-78
2022/06/28 09:46:23;;;;;;;7.08;6.30;;;;;;;;;;1685678;85;21060;-80
2022/06/28 09:48:48;;;;;;;6.60;5.92;;;;;;;;;;1663301;86;21013;-78
2022/06/28 09:51:16;;;;;;;6.85;6.10;;;;;;;;;;1694241;83;21068;-84
2022/06/28 09:53:44;;;;;;;7.80;6.08;;;;;;;;;;1720230;83;21065;-79
2022/06/28 09:56:10;;;;;;;6.87;6.28;;;;;;;;;;1697573;83;21544;-80
2022/06/28 09:58:36;;;;;;;6.40;5.80;;;;;;;;;;1655376;86;21018;-79
2022/06/28 10:01:02;;;;;;;7.10;6.50;;;;;;;;;;1657490;86;21206;-80
2022/06/28 10:03:28;;;;;;;9.05;8.15;;;;;;;;;;1676859;85;21434;-80
2022/06/28 10:05:55;;;;;;;11.40;7.28;;;;;;;;;;1684849;85;21081;-80
2022/06/28 10:08:21;;;;;;;7.53;6.12;;;;;;;;;;1687549;85;20989;-80
2022/06/28 10:10:47;;;;;;;6.92;6.33;;;;;;;;;;1677308;85;21038;-80
2022/06/28 10:16:02;;;;;;;6.62;5.92;;;;;;;;;;1688517;85;21075;-80
2022/06/28 10:18:30;;;;;;;7.05;6.12;;;;;;;;;;1659611;86;21006;-80
2022/06/28 10:20:56;;;;;;;6.60;6.00;;;;;;;;;;1659711;86;21077;-80
2022/06/28 10:23:23;;;;;;;7.22;6.53;;;;;;;;;;1659942;86;21018;-80
2022/06/28 10:26:07;;;;;;;6.95;5.97;;;;;;;;;;1659726;86;21063;-80
2022/06/28 10:28:35;;;;;;;6.80;6.03;;;;;;;;;;1658660;86;20986;-80
2022/06/28 10:31:20;;;;;;;7.22;6.62;;;;;;;;;;1659735;86;21006;-80
2022/06/28 10:33:46;;;;;;;8.23;6.70;;;;;;;;;;1646178;86;21088;-78
2022/06/28 10:36:12;;;;;;;7.50;6.78;;;;;;;;;;1659601;86;21041;-79
2022/06/28 10:38:38;;;;;;;6.40;5.78;;;;;;;;;;1660040;86;21022;-79
2022/06/28 10:41:12;;;;;;;7.55;6.85;;;;;;;;;;1659775;86;21046;-79
2022/06/28 10:43:40;;;;;;;6.65;5.95;;;;;;;;;;1640006;87;21111;-79
2022/06/28 10:46:07;;;;;;;7.17;6.50;;;;;;;;;;1651229;87;21353;-79
2022/06/28 10:48:50;;;;;;;7.70;6.90;;;;;;;;;;1703009;83;21057;-78
2022/06/28 10:51:16;;;;;;;7.35;6.33;;;;;;;;;;1693411;83;21092;-79
2022/06/28 10:54:04;;;;;;;9.35;6.60;;;;;;;;;;1714746;83;21070;-81
2022/06/28 10:56:32;;;;;;;7.55;6.40;;;;;;;;;;1722177;83;21116;-80
2022/06/28 10:58:59;;;;;;;6.67;6.08;;;;;;;;;;1699789;83;21068;-80
2022/06/28 11:01:42;;;;;;;7.15;6.45;;;;;;;;;;1699303;83;21033;-80
2022/06/28 11:04:22;;;;;;;6.83;6.10;;;;;;;;;;1721504;83;21009;-78
2022/06/28 11:06:50;;;;;;;12.10;6.90;;;;;;;;;;1705230;83;21057;-79
2022/06/28 11:09:25;;;;;;;6.90;6.30;;;;;;;;;;1706854;83;21076;-79
2022/06/28 11:12:11;;;;;;;7.00;6.30;;;;;;;;;;1695524;83;21048;-79
2022/06/28 11:14:39;;;;;;;6.75;5.97;;;;;;;;;;1682878;85;21049;-80
2022/06/28 11:17:18;;;;;;;9.95;6.25;;;;;;;;;;1711597;82;21017;-79
2022/06/28 11:19:51;;;;;;;7.10;6.22;;;;;;;;;;1710685;84;21092;-79
2022/06/28 11:22:21;;;;;;;8.30;6.97;;;;;;;;;;1713891;83;21144;-79
2022/06/28 11:24:47;;;;;;;7.72;6.45;;;;;;;;;;1714126;83;21009;-79
2022/06/28 11:27:20;;;;;;;8.08;6.17;;;;;;;;;;1702853;82;21938;-79
2022/06/28 11:29:56;;;;;;;9.28;8.38;;;;;;;;;;1709838;83;21020;-80
2022/06/28 11:32:26;;;;;;;7.92;7.22;;;;;;;;;;1687589;83;21698;-81
2022/06/28 11:35:03;;;;;;;7.33;6.62;;;;;;;;;;1707646;82;21065;-80
2022/06/28 11:37:30;;;;;;;7.40;6.28;;;;;;;;;;1710808;84;21037;-79
2022/06/28 11:39:57;;;;;;;7.05;6.37;;;;;;;;;;1711078;83;20997;-78
2022/06/28 11:42:24;;;;;;;6.92;6.33;;;;;;;;;;1707876;83;21030;-79
2022/06/28 11:44:50;;;;;;;6.78;6.10;;;;;;;;;;1714532;84;21033;-79
2022/06/28 11:47:16;;;;;;;6.37;5.78;;;;;;;;;;1715820;82;21588;-81
2022/06/28 11:49:43;;;;;;;6.75;6.15;;;;;;;;;;1712500;83;21082;-79
2022/06/28 11:52:15;;;;;;;6.70;5.97;;;;;;;;;;1691380;85;21533;-79
2022/06/28 11:54:44;;;;;;;6.35;5.75;;;;;;;;;;1717706;83;21024;-79
2022/06/28 11:57:16;;;;;;;7.97;5.92;;;;;;;;;;1717388;83;21036;-78
2022/06/28 11:59:53;;;;;;;7.40;6.42;;;;;;;;;;1722495;83;21080;-78
2022/06/28 12:02:30;;;;;;;6.92;6.33;;;;;;;;;;1717898;83;21061;-78
2022/06/28 12:04:56;;;;;;;7.65;6.40;;;;;;;;;;1681178;83;21009;-78
2022/06/28 12:07:33;;;;;;;6.30;5.70;;;;;;;;;;1717011;82;21029;-78
2022/06/28 12:09:59;;;;;;;7.40;6.03;;;;;;;;;;1715724;82;21019;-79
2022/06/28 12:12:24;;;;;;;6.65;6.05;;;;;;;;;;1719000;82;21033;-79
2022/06/28 12:14:52;;;;;;;6.20;5.60;;;;;;;;;;1717522;82;20949;-79
2022/06/28 12:17:19;;;;;;;7.58;6.80;;;;;;;;;;1684598;83;21503;-80
2022/06/28 12:19:45;;;;;;;6.65;5.95;;;;;;;;;;1613647;87;21092;-77
2022/06/28 12:22:13;;;;;;;7.37;6.67;;;;;;;;;;1717202;83;21039;-78
2022/06/28 12:24:54;;;;;;;7.58;6.45;;;;;;;;;;1715676;83;21643;-77
2022/06/28 12:27:17;;;;;;;6.83;6.20;;;;;;;;;;1706814;83;21022;-77
2022/06/28 12:29:43;;;;;;;6.30;5.70;;;;;;;;;;1715316;82;21029;-78
2022/06/28 12:32:09;;;;;;;6.40;5.80;;;;;;;;;;1703732;83;21041;-77
2022/06/28 12:34:37;;;;;;;6.78;6.00;;;;;;;;;;1714239;83;21132;-77
2022/06/28 12:37:08;;;;;;;6.47;5.87;;;;;;;;;;1691306;85;21008;-78
2022/06/28 12:39:32;;;;;;;5.85;5.33;;;;;;;;;;1709197;83;21086;-78
2022/06/28 12:41:59;;;;;;;8.05;6.40;;;;;;;;;;1715011;83;21523;-80
2022/06/28 12:44:25;;;;;;;7.10;6.40;;;;;;;;;;1688546;85;21074;-80
2022/06/28 12:46:53;;;;;;;8.00;6.17;;;;;;;;;;1690959;84;21047;-79
2022/06/28 12:49:24;;;;;;;6.78;6.05;;;;;;;;;;1672785;85;21508;-80
2022/06/28 12:51:47;;;;;;;7.10;6.40;;;;;;;;;;1680727;85;21530;-80
2022/06/28 12:54:14;;;;;;;7.35;6.40;;;;;;;;;;1675976;85;22192;-78
2022/06/28 12:56:40;;;;;;;6.45;5.85;;;;;;;;;;1669788;86;21076;-78
2022/06/28 12:59:06;;;;;;;21.65;6.95;;;;;;;;;;1668653;85;21046;-78
2022/06/28 13:01:32;;;;;;;6.55;5.95;;;;;;;;;;1670976;85;21126;-77
2022/06/28 13:03:58;;;;;;;6.40;5.80;;;;;;;;;;1677913;85;21525;-77
2022/06/28 13:06:24;;;;;;;8.15;6.22;;;;;;;;;;1675421;85;21077;-78
2022/06/28 13:08:50;;;;;;;6.72;6.12;;;;;;;;;;1674080;86;21141;-79
2022/06/28 13:11:17;;;;;;;7.55;6.20;;;;;;;;;;1680577;85;21577;-78
2022/06/28 13:13:43;;;;;;;6.72;6.05;;;;;;;;;;1686743;85;21048;-78
2022/06/28 13:16:09;;;;;;;6.60;6.00;;;;;;;;;;1686290;85;21104;-79
2022/06/28 13:18:36;;;;;;;7.20;6.37;;;;;;;;;;1682266;84;21070;-79
2022/06/28 13:21:02;;;;;;;6.47;5.95;;;;;;;;;;1683646;85;21088;-77
2022/06/28 13:23:28;;;;;;;6.72;6.03;;;;;;;;;;1686019;85;21023;-79
2022/06/28 13:25:56;;;;;;;6.65;6.05;;;;;;;;;;1661569;86;21099;-81
2022/06/28 13:28:22;;;;;;;6.40;5.80;;;;;;;;;;1687368;83;22105;-81
2022/06/28 13:30:48;;;;;;;6.75;6.03;;;;;;;;;;1689598;85;21621;-79
2022/06/28 13:33:15;;;;;;;5.90;5.40;;;;;;;;;;1682304;85;21037;-80
2022/06/28 13:35:43;;;;;;;7.17;6.50;;;;;;;;;;1698925;83;21025;-80
2022/06/28 13:38:11;;;;;;;7.60;6.33;;;;;;;;;;1699380;83;21576;-79
2022/06/28 13:40:38;;;;;;;7.12;6.42;;;;;;;;;;1657428;86;21028;-82
2022/06/28 13:43:32;;;;;;;8.63;6.30;;;;;;;;;;1659445;85;22222;-78
2022/06/28 13:45:34;;;;;;;6.90;6.10;;;;;;;;;;1648927;87;21034;-80
2022/06/28 13:48:00;;;;;;;6.62;5.92;;;;;;;;;;1651949;87;21044;-80
2022/06/28 13:50:26;;;;;;;6.05;5.50;;;;;;;;;;1651645;86;21098;-80
2022/06/28 13:52:52;;;;;;;8.35;7.55;;;;;;;;;;1651387;87;21004;-78
2022/06/28 13:55:18;;;;;;;7.92;7.12;;;;;;;;;;1711501;84;21013;-80
2022/06/28 13:57:46;;;;;;;6.47;5.67;;;;;;;;;;1715494;83;21590;-80
2022/06/28 14:00:12;;;;;;;6.33;5.75;;;;;;;;;;1716360;83;21024;-84
2022/06/28 14:02:39;;;;;;;6.62;6.03;;;;;;;;;;1700140;82;21147;-81
2022/06/28 14:05:05;;;;;;;9.33;6.80;;;;;;;;;;1691553;84;21049;-84
2022/06/28 14:07:32;;;;;;;6.78;5.72;;;;;;;;;;1691934;84;21101;-81
2022/06/28 14:09:58;;;;;;;7.47;5.80;;;;;;;;;;1680622;84;21041;-81
2022/06/28 14:12:25;;;;;;;6.58;6.08;;;;;;;;;;1694547;83;21036;-80
2022/06/28 14:14:51;;;;;;;7.15;6.33;;;;;;;;;;1701731;83;22175;-80
2022/06/28 14:17:18;;;;;;;7.37;6.55;;;;;;;;;;1657022;86;21010;-80
2022/06/28 14:19:45;;;;;;;6.47;5.78;;;;;;;;;;1650497;86;21073;-81
2022/06/28 14:22:11;;;;;;;7.05;6.20;;;;;;;;;;1670846;85;21039;-82
2022/06/28 14:24:37;;;;;;;6.37;5.80;;;;;;;;;;1677432;84;21044;-82
2022/06/28 14:27:03;;;;;;;6.75;5.60;;;;;;;;;;1693745;83;21017;-82
2022/06/28 14:29:31;;;;;;;6.95;6.25;;;;;;;;;;1685133;84;21008;-81
2022/06/28 14:31:57;;;;;;;6.78;5.28;;;;;;;;;;1688808;84;21576;-81
2022/06/28 14:34:23;;;;;;;7.92;5.62;;;;;;;;;;1688506;84;20943;-82
2022/06/28 14:36:49;;;;;;;7.12;6.20;;;;;;;;;;1687418;83;21053;-83
2022/06/28 14:39:17;;;;;;;7.50;6.75;;;;;;;;;;1705553;83;20977;-80
2022/06/28 14:41:43;;;;;;;6.50;5.90;;;;;;;;;;1692271;83;20997;-82
2022/06/28 14:44:10;;;;;;;6.60;5.90;;;;;;;;;;1697424;84;21134;-81
2022/06/28 14:46:37;;;;;;;7.28;5.92;;;;;;;;;;1714010;84;21563;-81
2022/06/28 14:49:04;;;;;;;6.33;5.80;;;;;;;;;;1713857;84;21044;-80
2022/06/28 14:51:31;;;;;;;6.20;5.60;;;;;;;;;;1706620;84;20996;-82
2022/06/28 14:53:58;;;;;;;6.47;5.87;;;;;;;;;;1702575;83;21000;-81
2022/06/28 14:56:24;;;;;;;6.20;5.70;;;;;;;;;;1713930;84;20953;-82
2022/06/28 14:59:31;;;;;;;6.62;6.00;;;;;;;;;;1803806;79;23431;-79